Time;durP1;ratioP1;P1;durP2;ratioP2;P2;SDS_P1;SDS_P2;PMS_P1;PMS_P2;Temp;Humidity;BMP_temperature;BMP_pressure;BME280_temperature;BME280_humidity;BME280_pressure;Samples;Min_cycle;Max_cycle;Signal;HPM_P1;HPM_P2
2021/07/28 00:00:47;;;;;;;7.30;4.22;;;;;;;28.42;33.38;99743.28;5051584;28;20028;-76
2021/07/28 00:03:13;;;;;;;8.15;5.10;;;;;;;28.12;33.72;99705.56;5051467;28;20032;-73
2021/07/28 00:05:38;;;;;;;11.43;5.30;;;;;;;27.90;34.08;99670.81;5051275;28;20052;-75
2021/07/28 00:08:04;;;;;;;5.63;5.05;;;;;;;28.13;34.10;99699.03;5051119;28;20052;-75
2021/07/28 00:10:29;;;;;;;7.05;4.50;;;;;;;28.07;34.06;99692.06;5050701;28;20115;-75
2021/07/28 00:12:55;;;;;;;6.00;4.85;;;;;;;28.32;34.06;99727.13;5051251;28;20029;-74
2021/07/28 00:15:21;;;;;;;5.97;4.57;;;;;;;28.31;34.09;99730.94;5051090;28;20024;-74
2021/07/28 00:17:55;;;;;;;6.32;4.40;;;;;;;28.37;33.90;99742.53;5051198;28;20517;-75
2021/07/28 00:25:36;;;;;;;6.18;4.43;;;;;;;28.35;34.30;99739.31;5050760;28;20102;-74
2021/07/28 00:28:03;;;;;;;5.90;4.35;;;;;;;27.89;34.49;99676.53;5051023;28;20486;-75
2021/07/28 00:30:29;;;;;;;8.23;5.00;;;;;;;28.25;34.52;99740.22;5051048;28;20460;-74
2021/07/28 00:32:54;;;;;;;8.98;4.80;;;;;;;27.70;34.59;99652.06;5050926;28;20109;-73
2021/07/28 00:35:20;;;;;;;6.45;5.00;;;;;;;27.90;34.57;99694.44;5051157;28;20024;-73
2021/07/28 00:37:45;;;;;;;6.55;4.85;;;;;;;27.99;34.62;99723.38;5050902;28;20025;-75
2021/07/28 00:40:15;;;;;;;8.43;4.95;;;;;;;28.00;34.83;99741.28;5050711;28;20021;-75
2021/07/28 00:42:40;;;;;;;6.47;5.05;;;;;;;28.00;34.65;99737.75;5050947;28;20040;-76
2021/07/28 00:45:06;;;;;;;9.85;5.15;;;;;;;27.93;34.97;99734.56;5050837;28;20033;-76
2021/07/28 00:47:32;;;;;;;7.53;4.93;;;;;;;27.74;35.58;99739.91;5050776;28;20017;-75
2021/07/28 00:49:59;;;;;;;8.80;5.57;;;;;;;27.12;36.06;99689.97;5050801;28;20131;-75
2021/07/28 00:52:26;;;;;;;7.45;5.30;;;;;;;27.11;36.22;99701.91;5050797;28;20029;-76
2021/07/28 00:54:51;;;;;;;6.55;5.55;;;;;;;27.26;36.68;99747.06;5050723;28;20032;-76
2021/07/28 00:57:17;;;;;;;5.18;4.65;;;;;;;26.87;36.90;99708.00;5050735;28;20425;-75
2021/07/28 00:59:44;;;;;;;7.43;5.25;;;;;;;27.20;36.90;99757.13;5050821;28;20410;-76
2021/07/28 01:02:10;;;;;;;9.52;5.32;;;;;;;27.12;37.17;99742.28;5050651;28;20053;-75
2021/07/28 01:04:35;;;;;;;6.32;5.63;;;;;;;26.57;37.39;99654.81;5050518;28;20108;-76
2021/07/28 01:07:01;;;;;;;8.73;5.10;;;;;;;26.91;37.37;99717.19;5049151;28;20025;-75
2021/07/28 01:09:28;;;;;;;7.78;5.47;;;;;;;26.70;37.58;99699.41;5050455;28;20057;-76
2021/07/28 01:12:03;;;;;;;6.95;5.35;;;;;;;26.49;37.79;99663.53;5050505;28;20025;-75
2021/07/28 01:14:29;;;;;;;8.32;5.45;;;;;;;26.90;37.95;99742.66;5050695;28;20028;-75
2021/07/28 01:16:55;;;;;;;6.05;4.93;;;;;;;26.71;38.28;99722.72;5050635;28;20512;-75
2021/07/28 01:19:27;;;;;;;7.88;5.90;;;;;;;26.72;38.64;99727.03;5050585;28;20029;-76
2021/07/28 01:21:53;;;;;;;8.98;6.00;;;;;;;26.71;38.48;99730.03;5051236;28;20035;-75
2021/07/28 01:24:20;;;;;;;9.77;5.65;;;;;;;26.66;38.53;99730.88;5054217;28;20494;-75
2021/07/28 01:26:46;;;;;;;11.90;6.10;;;;;;;26.26;38.71;99667.69;5054105;28;20025;-76
2021/07/28 01:29:12;;;;;;;8.00;5.82;;;;;;;26.36;38.77;99696.63;5054106;28;20486;-76
2021/07/28 01:31:43;;;;;;;10.77;5.93;;;;;;;26.60;39.02;99740.09;5053918;28;20116;-75
2021/07/28 01:34:11;;;;;;;9.88;5.75;;;;;;;26.24;39.01;99698.81;5054131;28;20071;-76
2021/07/28 01:36:38;;;;;;;10.50;6.10;;;;;;;26.45;39.11;99748.31;5054001;28;20435;-75
2021/07/28 01:39:08;;;;;;;7.43;5.53;;;;;;;26.12;39.35;99691.00;5054074;28;20074;-75
2021/07/28 01:41:33;;;;;;;8.05;6.38;;;;;;;26.48;39.26;99743.13;5053926;28;20025;-74
2021/07/28 01:43:59;;;;;;;8.40;5.97;;;;;;;26.21;39.67;99719.13;5053510;28;20551;-76
2021/07/28 01:46:24;;;;;;;7.28;5.35;;;;;;;26.24;39.54;99724.00;5053475;28;20029;-76
2021/07/28 01:48:50;;;;;;;6.85;5.70;;;;;;;26.45;39.47;99754.53;5053506;28;20123;-75
2021/07/28 01:51:15;;;;;;;10.05;6.18;;;;;;;26.36;39.59;99749.97;5053583;28;20029;-75
2021/07/28 01:53:43;;;;;;;6.43;5.53;;;;;;;26.44;39.36;99763.75;5053634;28;20027;-75
2021/07/28 01:56:09;;;;;;;9.15;5.95;;;;;;;26.29;39.58;99728.56;5053594;28;20452;-75
2021/07/28 01:58:38;;;;;;;7.20;5.55;;;;;;;26.42;39.29;99741.53;5053525;28;20020;-75
2021/07/28 02:01:03;;;;;;;8.70;5.97;;;;;;;26.59;39.32;99762.84;5053463;28;20056;-75
2021/07/28 02:03:28;;;;;;;7.85;5.65;;;;;;;26.38;39.50;99726.94;5053283;28;20179;-75
2021/07/28 02:05:54;;;;;;;6.70;5.65;;;;;;;26.14;39.63;99682.63;5051860;28;20025;-75
2021/07/28 02:08:19;;;;;;;8.63;6.00;;;;;;;26.57;39.73;99759.63;5053198;28;20025;-76
2021/07/28 02:10:47;;;;;;;9.10;5.90;;;;;;;26.42;39.88;99741.53;5053165;28;20028;-75
2021/07/28 02:13:14;;;;;;;11.77;6.05;;;;;;;26.45;39.64;99743.69;5051929;28;20028;-75
2021/07/28 02:15:40;;;;;;;9.55;6.00;;;;;;;26.37;39.94;99717.19;5053000;28;20021;-76
2021/07/28 02:18:06;;;;;;;8.98;5.82;;;;;;;26.18;39.40;99698.03;5051625;28;20021;-75
2021/07/28 02:20:32;;;;;;;8.82;6.30;;;;;;;26.59;39.41;99749.31;5053093;28;20025;-76
2021/07/28 02:22:58;;;;;;;8.85;6.25;;;;;;;26.63;39.33;99755.00;5052870;28;20166;-75
2021/07/28 02:25:23;;;;;;;7.53;6.38;;;;;;;26.65;39.19;99747.41;5052760;28;20096;-75
2021/07/28 02:27:49;;;;;;;9.25;6.03;;;;;;;26.27;39.40;99709.09;5053072;28;20040;-75
2021/07/28 02:30:16;;;;;;;8.13;5.30;;;;;;;26.44;39.51;99754.81;5052766;28;20025;-77
2021/07/28 02:32:42;;;;;;;9.63;6.45;;;;;;;26.30;39.43;99749.16;5052392;28;20453;-74
2021/07/28 02:35:09;;;;;;;12.55;6.93;;;;;;;26.20;39.63;99754.59;5052951;28;20032;-74
2021/07/28 02:37:35;;;;;;;8.25;6.18;;;;;;;26.05;39.98;99762.75;5052753;28;20416;-76
2021/07/28 02:40:01;;;;;;;8.95;5.80;;;;;;;25.92;40.02;99764.09;5052616;28;20039;-75
2021/07/28 02:42:27;;;;;;;11.48;6.88;;;;;;;25.74;40.19;99751.16;5052569;28;20025;-75
2021/07/28 02:44:52;;;;;;;10.73;6.50;;;;;;;25.32;40.32;99692.75;5052839;28;20031;-76
2021/07/28 02:47:18;;;;;;;7.07;6.13;;;;;;;25.69;40.31;99760.09;5051384;28;20047;-74
2021/07/28 02:49:43;;;;;;;7.90;5.80;;;;;;;25.63;40.41;99761.13;5052978;28;20033;-75
2021/07/28 02:52:09;;;;;;;6.97;5.78;;;;;;;25.18;40.70;99708.69;5052683;28;20048;-75
2021/07/28 02:54:34;;;;;;;9.25;6.30;;;;;;;25.56;40.75;99758.72;5051001;28;20522;-75
2021/07/28 02:57:00;;;;;;;6.78;5.97;;;;;;;25.47;40.49;99746.00;5052292;28;20025;-75
2021/07/28 02:59:25;;;;;;;8.07;6.00;;;;;;;25.23;40.57;99705.97;5052327;28;20108;-75
2021/07/28 03:01:52;;;;;;;8.57;6.35;;;;;;;25.52;40.57;99760.34;5052218;28;20032;-75
2021/07/28 03:04:18;;;;;;;8.73;6.20;;;;;;;25.12;40.65;99695.44;5051998;28;20028;-75
2021/07/28 03:06:44;;;;;;;11.73;7.07;;;;;;;24.99;40.77;99669.75;5051916;28;20398;-76
2021/07/28 03:09:10;;;;;;;6.45;5.30;;;;;;;25.30;40.73;99724.66;5052262;28;20391;-75
2021/07/28 03:11:35;;;;;;;8.05;6.80;;;;;;;25.42;40.64;99746.00;5052131;28;20051;-75
2021/07/28 03:14:01;;;;;;;8.75;5.95;;;;;;;25.47;40.90;99757.63;5052117;28;20063;-75
2021/07/28 03:16:26;;;;;;;7.78;5.30;;;;;;;25.35;40.77;99743.56;5051948;28;20042;-75
2021/07/28 03:18:52;;;;;;;8.40;6.15;;;;;;;25.51;40.60;99756.00;5051854;28;20024;-76
2021/07/28 03:21:17;;;;;;;7.30;6.28;;;;;;;25.56;40.88;99758.72;5051668;28;20024;-75
2021/07/28 03:23:43;;;;;;;12.23;6.55;;;;;;;25.56;40.78;99764.13;5050569;28;20016;-74
2021/07/28 03:26:08;;;;;;;12.80;6.30;;;;;;;25.54;40.72;99754.66;5051777;28;20023;-76
2021/07/28 03:28:34;;;;;;;6.63;5.90;;;;;;;25.54;40.96;99755.47;5050494;28;20028;-76
2021/07/28 03:30:59;;;;;;;12.02;6.32;;;;;;;25.53;40.93;99769.25;5051786;28;20031;-75
2021/07/28 03:33:25;;;;;;;10.60;7.13;;;;;;;25.46;40.97;99766.00;5050474;28;20024;-75
2021/07/28 03:35:51;;;;;;;11.25;6.82;;;;;;;25.44;41.06;99760.88;5051654;28;20017;-75
2021/07/28 03:38:16;;;;;;;11.13;6.20;;;;;;;25.09;41.01;99739.19;5051654;28;20547;-76
2021/07/28 03:40:42;;;;;;;10.45;7.25;;;;;;;25.40;41.35;99776.00;5051724;28;20025;-75
2021/07/28 03:43:08;;;;;;;14.23;6.82;;;;;;;25.41;41.12;99777.63;5051266;28;20172;-76
2021/07/28 03:45:34;;;;;;;10.15;7.03;;;;;;;25.44;41.42;99766.28;5050996;28;20080;-74
2021/07/28 03:48:00;;;;;;;15.10;8.23;;;;;;;25.32;41.26;99742.22;5051566;28;20031;-76
2021/07/28 03:50:25;;;;;;;11.50;7.45;;;;;;;25.18;41.10;99724.88;5051577;28;20503;-75
2021/07/28 03:52:51;;;;;;;16.17;8.45;;;;;;;25.39;41.53;99766.28;5051430;28;20021;-74
2021/07/28 03:55:16;;;;;;;13.07;7.78;;;;;;;25.40;41.35;99767.91;5051489;28;20410;-74
2021/07/28 03:57:42;;;;;;;9.95;8.13;;;;;;;25.41;41.17;99761.41;5051126;28;20048;-76
2021/07/28 04:00:08;;;;;;;12.02;8.07;;;;;;;25.45;41.25;99765.19;5051251;28;20017;-75
2021/07/28 04:02:34;;;;;;;16.27;8.90;;;;;;;25.41;41.33;99774.94;5051414;28;20459;-75
2021/07/28 04:04:59;;;;;;;14.88;9.18;;;;;;;25.28;41.22;99765.47;5051406;28;20021;-76
2021/07/28 04:07:25;;;;;;;14.98;9.10;;;;;;;25.28;41.53;99780.88;5051194;28;20502;-75
2021/07/28 04:09:50;;;;;;;12.35;9.30;;;;;;;25.13;42.00;99761.91;5051084;28;20029;-75
2021/07/28 04:12:16;;;;;;;13.20;9.02;;;;;;;24.82;42.02;99720.50;5051179;28;20406;-75
2021/07/28 04:14:41;;;;;;;11.88;9.30;;;;;;;25.19;41.94;99769.75;5051109;28;20106;-75
2021/07/28 04:17:07;;;;;;;11.70;8.43;;;;;;;25.12;42.12;99771.91;5051206;28;20021;-75
2021/07/28 04:19:32;;;;;;;11.30;8.38;;;;;;;24.82;42.22;99712.38;5051065;28;20084;-75
2021/07/28 04:21:58;;;;;;;13.43;7.97;;;;;;;25.22;41.91;99771.09;5051370;28;20028;-75
2021/07/28 04:24:24;;;;;;;16.02;8.25;;;;;;;25.31;41.91;99778.44;5051165;28;20021;-76
2021/07/28 04:26:49;;;;;;;17.55;7.68;;;;;;;25.05;41.68;99733.53;5050845;28;20028;-74
2021/07/28 04:29:15;;;;;;;16.50;8.00;;;;;;;25.14;41.73;99726.50;5050973;28;20024;-75
2021/07/28 04:31:40;;;;;;;13.93;8.25;;;;;;;25.19;41.84;99715.69;5050862;28;20059;-75
2021/07/28 04:34:06;;;;;;;10.80;8.93;;;;;;;25.44;41.89;99747.34;5050910;28;20029;-75
2021/07/28 04:36:31;;;;;;;10.90;8.85;;;;;;;25.37;41.70;99732.50;5051086;28;20044;-76
2021/07/28 04:39:01;;;;;;;17.20;10.10;;;;;;;25.25;41.59;99722.72;5051043;28;20100;-76
2021/07/28 04:41:26;;;;;;;18.42;11.20;;;;;;;25.68;41.66;99763.06;5050962;28;20025;-75
2021/07/28 04:43:52;;;;;;;14.20;11.85;;;;;;;25.74;41.24;99770.09;5050542;28;20035;-75
2021/07/28 04:46:18;;;;;;;17.77;11.57;;;;;;;25.69;41.49;99748.44;5050634;28;20013;-76
2021/07/28 04:48:43;;;;;;;19.75;11.50;;;;;;;25.60;41.28;99740.84;5050851;28;20040;-76
2021/07/28 04:51:08;;;;;;;15.57;10.43;;;;;;;25.84;41.85;99770.06;5050786;28;20029;-75
2021/07/28 04:53:34;;;;;;;14.57;9.15;;;;;;;25.60;41.60;99729.22;5050898;28;20512;-75
2021/07/28 04:55:59;;;;;;;14.13;9.13;;;;;;;25.89;41.28;99770.88;5053052;28;20570;-76
2021/07/28 04:58:25;;;;;;;11.60;7.95;;;;;;;25.92;41.40;99769.50;5054624;28;20112;-75
2021/07/28 05:00:51;;;;;;;10.38;8.05;;;;;;;25.95;41.45;99764.38;5054663;28;20017;-75
2021/07/28 05:03:17;;;;;;;11.68;8.07;;;;;;;25.98;41.60;99774.66;5054718;28;20025;-74
2021/07/28 05:05:43;;;;;;;14.50;8.13;;;;;;;26.02;41.62;99766.00;5054233;28;20017;-74
2021/07/28 05:08:09;;;;;;;15.38;9.02;;;;;;;26.01;41.85;99762.50;5053109;28;20034;-74
2021/07/28 05:10:35;;;;;;;15.52;9.65;;;;;;;26.10;41.40;99763.56;5054232;28;20021;-73
2021/07/28 05:13:01;;;;;;;16.52;9.13;;;;;;;25.91;41.63;99716.50;5054025;28;20413;-75
2021/07/28 05:15:27;;;;;;;19.88;10.40;;;;;;;26.03;41.47;99735.97;5053993;28;20036;-76
2021/07/28 05:17:52;;;;;;;19.77;9.77;;;;;;;26.10;41.35;99752.72;5054034;28;20529;-73
2021/07/28 05:20:18;;;;;;;15.68;9.30;;;;;;;26.15;41.65;99760.03;5054274;28;20031;-76
2021/07/28 05:22:44;;;;;;;15.00;9.60;;;;;;;25.78;41.56;99707.06;5054219;28;20486;-76
2021/07/28 05:25:10;;;;;;;12.52;8.68;;;;;;;25.94;41.61;99716.75;5054029;28;20028;-76
2021/07/28 05:27:36;;;;;;;17.25;9.00;;;;;;;26.05;41.46;99741.91;5053796;28;20021;-75
2021/07/28 05:30:02;;;;;;;14.13;8.50;;;;;;;26.25;41.43;99757.28;5053770;28;20100;-75
2021/07/28 05:32:28;;;;;;;13.75;9.63;;;;;;;26.03;41.27;99705.41;5048667;28;20021;-75
2021/07/28 05:34:54;;;;;;;16.95;10.40;;;;;;;26.17;41.33;99717.25;5039465;28;20032;-75
2021/07/28 05:37:20;;;;;;;15.88;10.23;;;;;;;26.22;41.19;99720.75;5034206;28;20486;-75
2021/07/28 05:39:45;;;;;;;16.65;9.23;;;;;;;26.36;41.07;99733.72;5041681;28;20090;-75
2021/07/28 05:42:11;;;;;;;13.10;10.93;;;;;;;26.35;40.62;99727.50;5051137;28;20453;-75
2021/07/28 05:44:37;;;;;;;15.57;11.05;;;;;;;26.70;40.80;99769.03;5048174;28;20049;-75
2021/07/28 05:47:02;;;;;;;18.00;13.13;;;;;;;26.62;40.66;99737.94;5033461;28;20100;-75
2021/07/28 05:49:28;;;;;;;15.68;10.73;;;;;;;26.81;40.41;99771.44;5033508;28;20025;-75
2021/07/28 05:51:53;;;;;;;16.08;11.43;;;;;;;26.87;40.50;99770.31;5033640;28;20022;-75
2021/07/28 05:54:19;;;;;;;14.27;11.90;;;;;;;26.88;40.41;99763.81;5032129;28;20509;-75
2021/07/28 05:56:44;;;;;;;21.35;15.48;;;;;;;26.99;40.30;99766.50;5037814;28;20405;-74
2021/07/28 05:59:09;;;;;;;16.27;12.32;;;;;;;26.86;40.00;99736.19;5053275;28;20104;-75
2021/07/28 06:01:35;;;;;;;15.00;11.80;;;;;;;26.80;39.72;99715.63;5053582;28;20028;-75
2021/07/28 06:04:00;;;;;;;20.63;14.07;;;;;;;27.19;39.89;99763.66;5050558;28;20036;-75
2021/07/28 06:06:26;;;;;;;14.15;9.27;;;;;;;26.92;39.79;99710.69;5037030;28;20144;-75
2021/07/28 06:08:55;;;;;;;14.90;10.15;;;;;;;27.20;39.81;99743.59;5052970;28;20108;-75
2021/07/28 06:11:20;;;;;;;18.45;12.07;;;;;;;27.43;39.75;99756.41;5041680;28;20029;-75
2021/07/28 06:13:46;;;;;;;18.58;11.82;;;;;;;27.52;39.46;99756.63;5036799;28;20028;-75
2021/07/28 06:16:12;;;;;;;15.77;12.75;;;;;;;27.57;39.31;99759.31;5054924;28;20028;-75
2021/07/28 06:18:37;;;;;;;16.50;10.45;;;;;;;27.64;39.53;99757.09;5053311;28;20029;-75
2021/07/28 06:21:02;;;;;;;13.63;9.32;;;;;;;27.70;38.99;99747.81;5052484;28;20028;-76
2021/07/28 06:23:28;;;;;;;15.60;9.45;;;;;;;27.80;39.04;99764.00;5042146;28;20013;-81
2021/07/28 06:25:53;;;;;;;11.18;9.63;;;;;;;27.84;38.79;99754.19;5034461;28;20406;-80
2021/07/28 06:28:19;;;;;;;10.77;9.20;;;;;;;27.94;38.71;99755.19;5053156;28;20429;-80
2021/07/28 06:30:44;;;;;;;11.07;7.50;;;;;;;27.98;38.45;99753.50;5048523;28;20025;-80
2021/07/28 06:33:10;;;;;;;14.65;8.45;;;;;;;27.85;38.43;99731.38;5039618;28;20079;-82
2021/07/28 06:35:35;;;;;;;14.63;8.90;;;;;;;28.09;38.21;99765.88;5037960;28;20094;-79
2021/07/28 06:38:02;;;;;;;13.48;8.32;;;;;;;28.16;37.99;99752.78;5041547;28;20025;-80
2021/07/28 06:40:28;;;;;;;15.75;7.07;;;;;;;28.20;37.58;99739.41;5048575;28;20024;-79
2021/07/28 06:42:54;;;;;;;11.38;6.60;;;;;;;28.08;37.18;99723.53;5032708;28;20083;-81
2021/07/28 06:45:19;;;;;;;18.38;14.98;;;;;;;28.35;37.29;99742.00;5034558;28;20021;-80
2021/07/28 06:47:45;;;;;;;9.68;7.28;;;;;;;28.42;36.88;99756.84;5031286;28;20029;-80
2021/07/28 06:50:10;;;;;;;12.55;7.40;;;;;;;28.22;36.72;99707.34;5047298;28;20036;-80
2021/07/28 06:52:36;;;;;;;11.85;8.30;;;;;;;28.55;36.49;99760.78;5039312;28;20047;-81
2021/07/28 06:55:01;;;;;;;12.07;7.18;;;;;;;28.59;36.34;99748.22;5040080;28;20021;-80
2021/07/28 06:57:27;;;;;;;16.73;6.70;;;;;;;28.66;36.20;99748.66;5035650;28;20017;-80
2021/07/28 06:59:52;;;;;;;12.75;6.75;;;;;;;28.52;35.97;99714.38;5036633;28;20060;-79
2021/07/28 07:02:18;;;;;;;11.98;6.50;;;;;;;28.64;35.99;99709.31;5036236;28;20148;-80
2021/07/28 07:04:43;;;;;;;10.65;7.93;;;;;;;28.88;35.99;99745.41;5031832;28;20088;-80
2021/07/28 07:07:08;;;;;;;12.60;6.90;;;;;;;28.91;35.66;99739.38;5038599;28;20149;-80
2021/07/28 07:09:34;;;;;;;11.07;7.45;;;;;;;28.56;35.72;99674.66;5040819;28;20053;-80
2021/07/28 07:11:59;;;;;;;14.77;6.93;;;;;;;28.73;35.81;99694.75;5046010;28;20021;-81
2021/07/28 07:14:25;;;;;;;7.00;6.30;;;;;;;28.73;35.59;99685.81;5032892;28;20521;-80
2021/07/28 07:16:50;;;;;;;10.52;5.95;;;;;;;29.02;35.41;99712.88;5030090;28;20028;-80
2021/07/28 07:19:15;;;;;;;8.35;6.00;;;;;;;29.19;35.25;99724.03;5034989;28;20031;-81
2021/07/28 07:21:41;;;;;;;8.18;6.05;;;;;;;29.33;35.35;99733.03;5034095;28;20021;-80
2021/07/28 07:24:06;;;;;;;10.77;6.68;;;;;;;29.29;35.36;99723.06;5047506;28;20123;-74
2021/07/28 07:26:32;;;;;;;8.23;6.10;;;;;;;29.10;35.25;99685.81;5033023;28;20014;-76
2021/07/28 07:28:57;;;;;;;10.75;6.50;;;;;;;29.47;35.50;99727.66;5042297;28;20502;-75
2021/07/28 07:31:22;;;;;;;8.13;7.25;;;;;;;29.63;35.13;99728.22;5049599;28;20063;-76
2021/07/28 07:33:48;;;;;;;9.13;6.40;;;;;;;29.64;35.44;99708.84;5054186;28;20016;-76
2021/07/28 07:36:23;;;;;;;9.25;6.75;;;;;;;29.82;35.52;99733.59;5040079;28;20029;-75
2021/07/28 07:38:49;;;;;;;11.50;7.13;;;;;;;29.21;35.19;99628.53;5036992;28;20580;-76
2021/07/28 07:41:15;;;;;;;13.23;7.10;;;;;;;29.96;35.34;99726.25;5046676;28;20048;-76
2021/07/28 07:43:41;;;;;;;9.82;6.80;;;;;;;30.04;34.86;99736.47;5032284;28;20026;-75
2021/07/28 07:46:06;;;;;;;15.13;7.55;;;;;;;30.12;35.13;99737.69;5036251;28;20029;-75
2021/07/28 07:48:32;;;;;;;11.50;8.07;;;;;;;30.20;34.82;99729.63;5038204;28;20041;-76
2021/07/28 07:50:58;;;;;;;14.52;8.13;;;;;;;30.02;35.02;99679.59;5037674;28;20064;-74
2021/07/28 07:53:24;;;;;;;9.88;7.40;;;;;;;30.42;34.60;99725.38;5046341;28;20028;-75
2021/07/28 07:55:50;;;;;;;9.35;7.25;;;;;;;30.43;34.26;99707.91;5032177;28;20029;-75
2021/07/28 07:58:15;;;;;;;15.95;11.77;;;;;;;30.39;34.16;99693.28;5040244;28;20041;-72
2021/07/28 08:00:41;;;;;;;10.98;6.95;;;;;;;30.64;34.21;99725.47;5029863;28;20526;-72
2021/07/28 08:03:06;;;;;;;9.32;7.07;;;;;;;30.67;33.90;99725.69;5051374;28;20040;-75
2021/07/28 08:05:34;;;;;;;11.98;7.18;;;;;;;30.69;33.68;99706.28;5071037;28;20032;-75
2021/07/28 08:08:00;;;;;;;10.00;6.43;;;;;;;30.71;33.32;99689.63;5042790;28;20493;-75
2021/07/28 08:10:25;;;;;;;11.73;7.05;;;;;;;30.93;32.94;99715.00;5037531;28;20030;-75
2021/07/28 08:12:51;;;;;;;11.30;9.88;;;;;;;30.86;32.66;99689.28;5044315;28;20024;-75
2021/07/28 08:15:16;;;;;;;10.98;7.88;;;;;;;30.84;32.61;99667.78;5049619;28;20036;-75
2021/07/28 08:17:42;;;;;;;10.48;8.45;;;;;;;31.20;32.49;99710.56;5032401;28;20025;-76
2021/07/28 08:20:07;;;;;;;11.27;7.78;;;;;;;30.99;31.99;99663.88;5070707;28;20512;-74
2021/07/28 08:22:33;;;;;;;14.52;10.57;;;;;;;31.35;32.08;99709.41;5070726;28;20111;-76
2021/07/28 08:24:59;;;;;;;11.93;10.27;;;;;;;31.38;32.14;99690.50;5064670;28;20175;-76
2021/07/28 08:27:26;;;;;;;16.45;13.57;;;;;;;31.43;31.90;99695.00;5033396;28;20032;-75
2021/07/28 08:29:52;;;;;;;10.27;7.00;;;;;;;31.58;31.42;99700.88;5039973;28;20064;-74
2021/07/28 08:32:18;;;;;;;7.88;6.80;;;;;;;31.54;30.95;99677.25;5062687;28;20111;-74
2021/07/28 08:34:43;;;;;;;8.43;5.78;;;;;;;31.41;30.59;99646.22;5061500;28;20182;-74
2021/07/28 08:37:08;;;;;;;9.05;6.53;;;;;;;31.84;30.38;99694.75;5034240;28;20031;-74
2021/07/28 08:39:34;;;;;;;10.00;6.53;;;;;;;31.93;30.20;99693.66;5036146;28;20029;-74
2021/07/28 08:42:06;;;;;;;9.07;6.03;;;;;;;31.97;30.39;99695.78;5043708;28;20040;-76
2021/07/28 08:44:36;;;;;;;6.40;5.90;;;;;;;31.86;30.20;99644.16;5053541;28;20048;-75
2021/07/28 08:47:03;;;;;;;9.00;5.40;;;;;;;32.21;29.68;99683.31;5053410;28;20115;-75
2021/07/28 08:49:28;;;;;;;7.53;6.07;;;;;;;32.28;29.57;99679.34;5033956;28;20399;-72
2021/07/28 08:51:54;;;;;;;6.07;5.13;;;;;;;32.29;29.48;99659.09;5053411;28;20036;-74
2021/07/28 08:54:20;;;;;;;8.90;6.32;;;;;;;32.45;29.49;99652.03;5045814;28;20417;-75
2021/07/28 08:56:47;;;;;;;10.20;6.07;;;;;;;32.74;29.34;99654.16;5047025;28;20104;-75
2021/07/28 08:59:26;;;;;;;21.92;19.63;;;;;;;33.02;28.82;99673.81;5041927;28;20041;-73
2021/07/28 09:01:56;;;;;;;9.45;7.00;;;;;;;33.11;28.65;99672.66;5051057;28;20017;-73
2021/07/28 09:04:22;;;;;;;10.02;6.10;;;;;;;33.22;28.34;99656.69;5044988;28;20490;-74
2021/07/28 09:06:48;;;;;;;8.70;7.25;;;;;;;33.41;27.94;99665.38;5047471;28;20029;-75
2021/07/28 09:09:13;;;;;;;9.15;6.95;;;;;;;33.62;28.18;99656.47;5053575;28;20025;-75
2021/07/28 09:11:51;;;;;;;9.52;8.57;;;;;;;33.90;28.05;99662.34;5054144;28;20017;-75
2021/07/28 09:14:20;;;;;;;11.60;5.95;;;;;;;34.06;26.62;99655.94;5057159;28;20032;-76
2021/07/28 09:16:46;;;;;;;6.75;4.70;;;;;;;33.78;26.03;99594.53;5045190;28;20013;-75
2021/07/28 09:19:11;;;;;;;6.57;4.85;;;;;;;34.19;25.87;99653.28;5033952;28;20036;-73
2021/07/28 09:21:37;;;;;;;8.43;6.70;;;;;;;34.36;25.65;99650.50;5036152;28;20100;-74
2021/07/28 09:24:14;;;;;;;7.22;5.70;;;;;;;34.54;25.85;99643.75;5039249;28;20080;-74
2021/07/28 09:26:45;;;;;;;16.25;11.23;;;;;;;34.71;26.11;99651.81;5043709;28;20083;-73
2021/07/28 09:29:11;;;;;;;13.45;8.88;;;;;;;34.93;25.76;99647.13;5040281;28;20091;-73
2021/07/28 09:31:40;;;;;;;11.27;6.00;;;;;;;35.09;25.07;99647.34;5043237;28;20105;-74
2021/07/28 09:34:26;;;;;;;10.30;7.32;;;;;;;35.22;24.95;99638.78;5050638;28;20041;-74
2021/07/28 09:36:54;;;;;;;22.55;13.32;;;;;;;35.43;25.18;99643.44;5045866;28;20098;-74
2021/07/28 09:39:27;;;;;;;12.63;8.07;;;;;;;35.42;24.84;99611.63;5053081;28;20021;-75
2021/07/28 09:41:54;;;;;;;18.48;9.73;;;;;;;35.79;24.69;99632.50;5052230;28;20025;-73
2021/07/28 09:44:28;;;;;;;13.65;7.70;;;;;;;36.00;23.98;99631.59;5037991;28;20045;-76
2021/07/28 09:47:20;;;;;;;9.82;6.05;;;;;;;36.10;23.95;99628.38;5033378;28;20040;-73
2021/07/28 09:49:47;;;;;;;19.83;9.10;;;;;;;35.80;23.76;99570.09;5050257;28;20063;-73
2021/07/28 09:52:29;;;;;;;10.65;6.40;;;;;;;36.28;23.60;99621.44;5065476;28;20055;-75
2021/07/28 09:54:57;;;;;;;12.15;5.97;;;;;;;36.32;23.31;99616.88;5051967;28;20433;-73
2021/07/28 09:57:24;;;;;;;10.35;6.47;;;;;;;36.44;23.32;99621.59;5052832;28;20049;-75
2021/07/28 09:59:55;;;;;;;13.70;8.98;;;;;;;36.64;23.49;99617.84;5034849;28;20215;-74
2021/07/28 10:02:22;;;;;;;9.10;6.72;;;;;;;36.71;23.28;99622.75;5037905;28;20040;-75
2021/07/28 10:04:49;;;;;;;8.88;5.90;;;;;;;36.86;23.02;99609.06;5043806;28;20033;-74
2021/07/28 10:07:19;;;;;;;6.70;5.97;;;;;;;37.05;22.82;99610.31;5049870;28;20029;-73
2021/07/28 10:09:57;;;;;;;12.05;7.65;;;;;;;37.24;22.84;99610.50;5053109;28;20044;-74
2021/07/28 10:12:23;;;;;;;18.30;14.30;;;;;;;37.39;22.74;99598.69;5032425;28;20036;-76
2021/07/28 10:14:50;;;;;;;9.63;5.90;;;;;;;37.56;22.23;99608.53;5044598;28;20126;-76
2021/07/28 10:17:16;;;;;;;12.05;5.50;;;;;;;37.42;22.04;99569.63;5032451;28;20033;-74
2021/07/28 10:19:42;;;;;;;13.30;5.85;;;;;;;37.65;22.01;99591.81;5032474;28;20447;-77
2021/07/28 10:22:11;;;;;;;10.52;5.95;;;;;;;37.71;21.84;99593.16;5031680;28;20029;-73
2021/07/28 10:24:36;;;;;;;13.57;6.90;;;;;;;37.91;21.99;99592.09;5032604;28;20102;-74
2021/07/28 10:27:03;;;;;;;13.48;6.47;;;;;;;37.81;21.83;99538.28;5037660;28;20520;-76
2021/07/28 10:29:29;;;;;;;9.32;5.93;;;;;;;37.98;21.76;99552.84;5032113;28;20021;-74
2021/07/28 10:31:55;;;;;;;11.05;5.57;;;;;;;38.21;21.05;99569.50;5035575;28;20422;-76
2021/07/28 10:34:26;;;;;;;13.57;6.00;;;;;;;38.32;20.77;99574.09;5036069;28;20043;-76
2021/07/28 10:37:01;;;;;;;9.80;5.53;;;;;;;38.19;20.70;99531.25;5036469;28;20029;-75
2021/07/28 10:39:51;;;;;;;8.10;5.75;;;;;;;38.55;21.04;99565.06;5050904;28;20025;-74
2021/07/28 10:42:18;;;;;;;8.88;5.90;;;;;;;38.62;20.41;99562.47;5032273;28;20029;-76
2021/07/28 10:44:56;;;;;;;7.32;5.57;;;;;;;38.77;20.45;99556.88;5064114;28;20072;-76
2021/07/28 10:47:36;;;;;;;10.82;5.25;;;;;;;38.93;18.55;99561.50;5032628;28;20033;-74
2021/07/28 10:50:09;;;;;;;12.03;5.73;;;;;;;38.77;19.23;99545.84;5031889;28;20477;-74
2021/07/28 10:52:37;;;;;;;9.05;6.00;;;;;;;38.39;19.72;99477.69;5031852;28;20353;-73
2021/07/28 10:55:03;;;;;;;11.55;5.43;;;;;;;38.99;19.59;99551.75;5037126;28;20112;-73
2021/07/28 10:57:34;;;;;;;9.13;5.35;;;;;;;39.17;19.10;99549.31;5049531;28;20466;-75
2021/07/28 11:00:00;;;;;;;10.63;5.55;;;;;;;39.04;19.79;99515.53;5043903;28;20074;-75
2021/07/28 11:02:57;;;;;;;12.65;5.10;;;;;;;39.48;19.10;99542.72;5038146;28;20029;-74
2021/07/28 11:05:39;;;;;;;8.75;5.38;;;;;;;39.47;19.14;99522.59;5030517;28;20025;-76
2021/07/28 11:08:08;;;;;;;9.52;5.80;;;;;;;39.42;19.58;99509.09;5030578;28;20021;-76
2021/07/28 11:10:45;;;;;;;14.38;8.73;;;;;;;39.79;18.61;99547.94;5030583;28;20028;-77
2021/07/28 11:13:13;;;;;;;11.55;9.02;;;;;;;39.85;19.25;99537.38;5038539;28;20433;-75
2021/07/28 11:15:40;;;;;;;8.10;5.53;;;;;;;39.96;18.88;99532.81;5051283;28;20071;-75
2021/07/28 11:18:07;;;;;;;25.02;6.40;;;;;;;39.65;18.38;99490.50;5031798;28;20525;-75
2021/07/28 11:20:37;;;;;;;10.68;5.60;;;;;;;39.97;18.55;99549.00;5040442;28;20109;-75
2021/07/28 11:23:21;;;;;;;;;;;;;;;40.14;18.48;99539.38;5043401;28;20025;-81
2021/07/28 11:25:50;;;;;;;12.63;5.10;;;;;;;40.23;18.74;99517.75;5035748;28;19927;-82
2021/07/28 11:28:22;;;;;;;10.10;5.80;;;;;;;40.56;18.20;99539.09;5044485;28;20017;-80
2021/07/28 11:30:58;;;;;;;9.35;5.15;;;;;;;40.72;18.23;99533.31;5034188;28;20025;-82
2021/07/28 11:33:24;;;;;;;8.30;4.93;;;;;;;40.80;17.83;99518.41;5035174;28;20044;-81